Аэропорт: Кемерово. Кемерово

ICAO: UNEE

METAR:
2021-04-21 19:30:00
UNEE 211930Z 01004MPS CAVOK M04/M10 Q1027 R23/CLRD60 NOSIG RMK QFE747
METAR:
2021-04-21 17:00:00
TAF UNEE 211700Z 2118/2218 04003G08MPS 9999 SCT040 TEMPO 2118/2121 1500 SHSN BKN003 BKN016CB TEMPO 2121/2203 10003MPS 0200 FZFG BKN002